Time;durP1;ratioP1;P1;durP2;ratioP2;P2;SDS_P1;SDS_P2;PMS_P1;PMS_P2;Temp;Humidity;BMP_temperature;BMP_pressure;BME280_temperature;BME280_humidity;BME280_pressure;Samples;Min_cycle;Max_cycle;Signal;HPM_P1;HPM_P2
2023/08/20 00:01:53;;;;;;;11.80;7.07;;;21.10;99.90;;;;;;6122590;23;20665;-86
2023/08/20 00:04:22;;;;;;;9.23;7.07;;;21.00;99.90;;;;;;6122653;23;20147;-85
2023/08/20 00:06:50;;;;;;;12.18;7.10;;;21.00;99.90;;;;;;6122665;23;20167;-85
2023/08/20 00:09:17;;;;;;;13.23;5.95;;;21.00;99.90;;;;;;6122869;23;20167;-87
2023/08/20 00:11:45;;;;;;;17.98;6.82;;;21.00;99.90;;;;;;6122173;23;20187;-87
2023/08/20 00:14:16;;;;;;;13.43;8.20;;;21.00;99.90;;;;;;6122464;23;20191;-85
2023/08/20 00:16:45;;;;;;;11.48;7.72;;;20.70;99.90;;;;;;6096301;23;20276;-85
2023/08/20 00:19:13;;;;;;;10.85;6.80;;;20.70;99.90;;;;;;6122398;23;20501;-86
2023/08/20 00:21:44;;;;;;;12.10;7.18;;;20.70;99.90;;;;;;6096323;23;20163;-87
2023/08/20 00:24:13;;;;;;;12.98;6.90;;;20.70;99.90;;;;;;6122282;23;20170;-85
2023/08/20 00:26:40;;;;;;;12.43;6.72;;;20.80;99.90;;;;;;6096426;23;20175;-86
2023/08/20 00:29:08;;;;;;;14.80;6.28;;;20.80;99.90;;;;;;6122631;23;20541;-84
2023/08/20 00:31:36;;;;;;;14.82;6.35;;;20.90;99.90;;;;;;6096460;23;20195;-87
2023/08/20 00:34:03;;;;;;;12.00;6.22;;;20.90;99.90;;;;;;6096179;23;20179;-86
2023/08/20 00:36:35;;;;;;;9.68;6.93;;;21.00;99.90;;;;;;6095747;23;20202;-86
2023/08/20 00:39:03;;;;;;;11.60;7.07;;;20.90;99.90;;;;;;6096121;23;20596;-87
2023/08/20 00:41:31;;;;;;;16.00;7.10;;;20.90;99.90;;;;;;6122244;23;20496;-85
2023/08/20 00:43:58;;;;;;;23.90;7.70;;;20.90;99.90;;;;;;6096195;23;20606;-86
2023/08/20 00:46:27;;;;;;;12.82;7.45;;;20.80;99.90;;;;;;6096197;23;20226;-86
2023/08/20 00:48:55;;;;;;;11.48;7.78;;;20.80;99.90;;;;;;6096082;23;20167;-87
2023/08/20 00:51:23;;;;;;;14.15;6.60;;;20.70;99.90;;;;;;6122541;23;20186;-87
2023/08/20 00:53:51;;;;;;;13.98;6.53;;;20.70;99.90;;;;;;6096522;23;20174;-88
2023/08/20 00:56:18;;;;;;;12.27;7.07;;;20.70;99.90;;;;;;6122024;23;20592;-86
2023/08/20 00:58:46;;;;;;;17.17;7.40;;;20.70;99.90;;;;;;6096011;23;20163;-86
2023/08/20 01:01:14;;;;;;;16.27;7.38;;;20.60;99.90;;;;;;6122402;23;20164;-85
2023/08/20 01:03:41;;;;;;;14.05;6.75;;;20.70;99.90;;;;;;6072787;23;20175;-87
2023/08/20 01:06:27;;;;;;;23.50;7.55;;;20.70;99.90;;;;;;6096140;23;20194;-86
2023/08/20 01:09:06;;;;;;;12.30;7.70;;;20.60;99.90;;;;;;6096794;23;20636;-85
2023/08/20 01:11:45;;;;;;;14.05;7.05;;;20.50;99.90;;;;;;6096574;23;20148;-87
2023/08/20 01:14:17;;;;;;;15.07;6.78;;;20.60;99.90;;;;;;6122295;23;20230;-86
2023/08/20 01:16:45;;;;;;;11.63;7.40;;;20.50;99.90;;;;;;6072576;23;20207;-87
2023/08/20 01:19:18;;;;;;;13.13;7.65;;;20.60;99.90;;;;;;6097536;23;20144;-88
2023/08/20 01:22:04;;;;;;;12.18;6.90;;;20.60;99.90;;;;;;6094979;23;20175;-85
2023/08/20 01:25:01;;;;;;;12.27;6.80;;;20.60;99.90;;;;;;6121860;23;20238;-86
2023/08/20 01:27:46;;;;;;;15.70;7.45;;;20.60;99.90;;;;;;6083618;23;20178;-85
2023/08/20 01:30:15;;;;;;;14.48;6.90;;;20.50;99.90;;;;;;6120745;23;20175;-86
2023/08/20 01:32:43;;;;;;;9.77;6.80;;;20.50;99.90;;;;;;6121846;23;20174;-85
2023/08/20 01:35:16;;;;;;;15.80;7.65;;;20.50;99.90;;;;;;6121822;23;20254;-85
2023/08/20 01:37:44;;;;;;;10.40;6.82;;;20.50;99.90;;;;;;6121301;23;20210;-86
2023/08/20 01:40:12;;;;;;;14.60;7.72;;;20.50;99.90;;;;;;6122958;23;20243;-85
2023/08/20 01:42:40;;;;;;;13.75;7.13;;;20.50;99.90;;;;;;6096893;23;20167;-86
2023/08/20 01:45:08;;;;;;;12.90;7.20;;;20.50;99.90;;;;;;6072731;23;20195;-86
2023/08/20 01:47:36;;;;;;;18.85;8.63;;;20.50;99.90;;;;;;6122371;23;20163;-86
2023/08/20 01:50:04;;;;;;;14.80;7.95;;;20.30;99.90;;;;;;6122075;23;20238;-85
2023/08/20 01:52:34;;;;;;;12.50;7.85;;;20.00;99.90;;;;;;6121789;23;20183;-85
2023/08/20 01:55:03;;;;;;;18.08;7.93;;;19.90;99.90;;;;;;6122837;23;20160;-82
2023/08/20 01:57:32;;;;;;;15.30;7.53;;;20.00;99.90;;;;;;6094801;23;20254;-85
2023/08/20 02:00:00;;;;;;;11.70;7.60;;;20.20;99.90;;;;;;6094685;23;20178;-85
2023/08/20 02:02:39;;;;;;;13.75;6.88;;;20.30;99.90;;;;;;6121027;23;20234;-86
2023/08/20 02:05:08;;;;;;;10.00;6.78;;;20.30;99.90;;;;;;6120027;23;20163;-86
2023/08/20 02:07:37;;;;;;;17.23;7.70;;;20.40;99.90;;;;;;6071734;23;20176;-87
2023/08/20 02:10:05;;;;;;;11.15;7.95;;;20.20;99.90;;;;;;6094933;23;20894;-87
2023/08/20 02:12:33;;;;;;;15.40;8.20;;;20.20;99.90;;;;;;6120961;23;20187;-86
2023/08/20 02:15:00;;;;;;;13.68;7.25;;;20.30;99.90;;;;;;6095138;23;20614;-85
2023/08/20 02:17:27;;;;;;;11.80;7.10;;;20.30;99.90;;;;;;6121402;23;20243;-88
2023/08/20 02:19:55;;;;;;;15.35;8.98;;;20.30;99.90;;;;;;6095835;23;20171;-86
2023/08/20 02:22:23;;;;;;;13.52;8.13;;;20.30;99.90;;;;;;6121804;23;20611;-85
2023/08/20 02:24:50;;;;;;;11.90;7.70;;;19.90;99.90;;;;;;6121773;23;20167;-86
2023/08/20 02:27:18;;;;;;;11.30;7.85;;;19.80;99.90;;;;;;6121788;23;20163;-86
2023/08/20 02:29:45;;;;;;;13.38;6.97;;;19.70;99.90;;;;;;6121879;23;20649;-84
2023/08/20 02:32:15;;;;;;;15.30;7.50;;;19.90;99.90;;;;;;6096708;23;20170;-86
2023/08/20 02:34:43;;;;;;;14.02;6.93;;;20.00;99.90;;;;;;6096516;23;20234;-86
2023/08/20 02:37:11;;;;;;;14.45;6.55;;;20.00;99.90;;;;;;6097318;23;20187;-86
2023/08/20 02:39:38;;;;;;;10.60;7.30;;;20.10;99.90;;;;;;6096972;23;20274;-87
2023/08/20 02:42:08;;;;;;;17.13;7.30;;;20.10;99.90;;;;;;6123098;23;20168;-86
2023/08/20 02:44:35;;;;;;;16.75;7.20;;;20.10;99.90;;;;;;6097255;23;20191;-85
2023/08/20 02:47:03;;;;;;;10.18;6.30;;;20.10;99.90;;;;;;6097587;23;20653;-86
2023/08/20 02:49:30;;;;;;;12.52;6.40;;;20.20;99.90;;;;;;6123403;23;20246;-86
2023/08/20 02:51:58;;;;;;;13.40;7.32;;;20.20;99.90;;;;;;6097562;23;20209;-88
2023/08/20 02:54:25;;;;;;;19.02;10.00;;;20.20;99.90;;;;;;6073429;23;20182;-85
2023/08/20 02:56:53;;;;;;;15.88;9.40;;;20.00;99.90;;;;;;6122830;23;20198;-85
2023/08/20 02:59:21;;;;;;;16.63;9.70;;;19.90;99.90;;;;;;6097023;23;20170;-86
2023/08/20 03:01:48;;;;;;;13.85;8.40;;;19.80;99.90;;;;;;6097877;23;20189;-86
2023/08/20 03:04:16;;;;;;;16.40;7.97;;;19.90;99.90;;;;;;6096899;23;20270;-86
2023/08/20 03:06:44;;;;;;;17.77;8.90;;;20.00;99.90;;;;;;6097534;23;20183;-87
2023/08/20 03:09:11;;;;;;;14.88;8.63;;;20.00;99.90;;;;;;6097634;23;20163;-86
2023/08/20 03:11:39;;;;;;;14.25;7.97;;;20.00;99.90;;;;;;6073210;23;20175;-86
2023/08/20 03:14:06;;;;;;;15.88;9.95;;;19.90;99.90;;;;;;6073059;23;20173;-86
2023/08/20 03:16:34;;;;;;;15.40;10.00;;;19.90;99.90;;;;;;6096927;23;20246;-87
2023/08/20 03:19:02;;;;;;;18.00;11.40;;;19.90;99.90;;;;;;6097102;23;20506;-86
2023/08/20 03:21:30;;;;;;;16.45;11.38;;;19.90;99.90;;;;;;6097446;23;20492;-86
2023/08/20 03:23:57;;;;;;;14.70;10.30;;;20.00;99.90;;;;;;6097676;23;20167;-85
2023/08/20 03:26:25;;;;;;;18.13;10.40;;;20.00;99.90;;;;;;6122994;23;20184;-88
2023/08/20 03:28:52;;;;;;;13.73;9.63;;;20.10;99.90;;;;;;6073366;23;20178;-86
2023/08/20 03:31:20;;;;;;;21.00;10.23;;;20.00;99.90;;;;;;6072986;23;20175;-87
2023/08/20 03:33:48;;;;;;;15.90;9.55;;;20.00;99.90;;;;;;6096562;23;20175;-83
2023/08/20 03:36:16;;;;;;;13.63;9.27;;;19.90;99.90;;;;;;6096394;23;20290;-87
2023/08/20 03:38:43;;;;;;;15.32;11.30;;;19.80;99.90;;;;;;6096646;23;20172;-86
2023/08/20 03:41:11;;;;;;;13.93;10.70;;;19.80;99.90;;;;;;6096585;23;20241;-88
2023/08/20 03:43:39;;;;;;;15.60;10.77;;;19.80;99.90;;;;;;6072767;23;20664;-85
2023/08/20 03:46:07;;;;;;;14.70;9.43;;;20.00;99.90;;;;;;6122094;23;20226;-84
2023/08/20 03:48:34;;;;;;;12.05;9.82;;;20.00;99.90;;;;;;6122324;23;20167;-86
2023/08/20 03:51:02;;;;;;;13.23;10.05;;;20.00;99.90;;;;;;6095946;23;20171;-85
2023/08/20 03:53:29;;;;;;;13.77;9.68;;;20.00;99.90;;;;;;6121854;23;20170;-84
2023/08/20 03:55:57;;;;;;;16.35;10.77;;;20.00;99.90;;;;;;6096173;23;20242;-85
2023/08/20 03:58:24;;;;;;;12.38;10.68;;;19.90;99.90;;;;;;6122766;23;20148;-88
2023/08/20 04:00:52;;;;;;;12.32;10.18;;;20.00;99.90;;;;;;6122622;23;20160;-87
2023/08/20 04:03:20;;;;;;;12.82;9.95;;;19.90;99.90;;;;;;6097260;23;20501;-86
2023/08/20 04:05:49;;;;;;;10.77;9.10;;;19.80;99.90;;;;;;6096325;23;20175;-85
2023/08/20 04:08:16;;;;;;;12.68;10.43;;;19.90;99.90;;;;;;6096371;23;20178;-85
2023/08/20 04:10:45;;;;;;;14.60;11.23;;;19.90;99.90;;;;;;6096683;23;20175;-85
2023/08/20 04:13:13;;;;;;;12.30;9.77;;;20.00;99.90;;;;;;6096993;23;20677;-87
2023/08/20 04:15:41;;;;;;;11.73;10.10;;;20.00;99.90;;;;;;6096720;23;20176;-84
2023/08/20 04:18:09;;;;;;;14.15;11.55;;;19.90;99.90;;;;;;6096106;23;20681;-88
2023/08/20 04:20:37;;;;;;;15.00;11.30;;;20.00;99.90;;;;;;6096460;23;20222;-88
2023/08/20 04:23:04;;;;;;;13.60;10.70;;;20.00;99.90;;;;;;6122621;23;20160;-87
2023/08/20 04:25:32;;;;;;;13.18;10.65;;;20.00;99.90;;;;;;6096350;23;20167;-89
2023/08/20 04:28:00;;;;;;;13.93;10.05;;;20.00;99.90;;;;;;6122358;23;20166;-86
2023/08/20 04:30:27;;;;;;;12.02;10.30;;;20.10;99.90;;;;;;6072789;23;20176;-86
2023/08/20 04:32:55;;;;;;;12.52;10.32;;;20.10;99.90;;;;;;6122688;23;20160;-85
2023/08/20 04:35:23;;;;;;;15.15;10.88;;;20.10;99.90;;;;;;6121572;23;20159;-84
2023/08/20 04:37:51;;;;;;;14.43;11.70;;;20.10;99.90;;;;;;6096332;23;20713;-88
2023/08/20 04:40:19;;;;;;;13.13;9.75;;;20.10;99.90;;;;;;6096622;23;20175;-87
2023/08/20 04:42:47;;;;;;;14.70;11.57;;;20.20;99.90;;;;;;6122195;23;20364;-87
2023/08/20 04:45:17;;;;;;;14.07;9.68;;;20.20;99.90;;;;;;6096323;23;20167;-86
2023/08/20 04:47:47;;;;;;;14.95;11.82;;;20.30;99.90;;;;;;6072652;23;20175;-87
2023/08/20 04:50:15;;;;;;;14.48;11.77;;;20.10;99.90;;;;;;6096234;23;20171;-84
2023/08/20 04:52:46;;;;;;;13.60;10.27;;;20.20;99.90;;;;;;6073182;23;20183;-87
2023/08/20 04:55:15;;;;;;;15.18;11.52;;;20.20;99.90;;;;;;6096620;23;20918;-87
2023/08/20 04:57:43;;;;;;;14.60;11.00;;;20.20;99.90;;;;;;6095630;23;20207;-86
2023/08/20 05:00:12;;;;;;;14.80;11.45;;;20.20;99.90;;;;;;6095992;23;20548;-85
2023/08/20 05:02:46;;;;;;;13.60;10.75;;;20.30;99.90;;;;;;6095836;23;20171;-86
2023/08/20 05:05:17;;;;;;;14.35;11.98;;;20.30;99.90;;;;;;6096320;23;20163;-85
2023/08/20 05:07:45;;;;;;;15.50;11.73;;;20.30;99.90;;;;;;6096127;23;20226;-86
2023/08/20 05:10:13;;;;;;;16.80;12.80;;;20.30;99.90;;;;;;6096735;23;20565;-86
2023/08/20 05:12:41;;;;;;;17.38;13.50;;;20.40;99.90;;;;;;6095927;23;20889;-87
2023/08/20 05:15:09;;;;;;;17.83;12.70;;;20.30;99.90;;;;;;6096469;23;20175;-85
2023/08/20 05:17:37;;;;;;;17.02;13.15;;;20.30;99.90;;;;;;6096312;23;20215;-85
2023/08/20 05:20:05;;;;;;;18.95;13.25;;;20.40;99.90;;;;;;6122526;23;20227;-87
2023/08/20 05:22:33;;;;;;;18.58;13.27;;;20.40;99.90;;;;;;6096519;23;20262;-88
2023/08/20 05:25:02;;;;;;;16.30;12.48;;;20.30;99.90;;;;;;6096078;23;20167;-86
2023/08/20 05:27:30;;;;;;;18.25;13.65;;;20.40;99.90;;;;;;6095687;23;20175;-87
2023/08/20 05:29:59;;;;;;;19.52;14.20;;;20.40;99.90;;;;;;6096104;23;20513;-86
2023/08/20 05:32:26;;;;;;;15.50;11.95;;;20.30;99.90;;;;;;6094527;23;20181;-87
2023/08/20 05:34:54;;;;;;;19.63;13.45;;;20.40;99.90;;;;;;6095166;23;20171;-86
2023/08/20 05:37:21;;;;;;;15.60;11.82;;;20.40;99.90;;;;;;6120744;23;20187;-86
2023/08/20 05:39:49;;;;;;;22.63;14.95;;;20.50;99.90;;;;;;6121289;23;20194;-87
2023/08/20 05:42:17;;;;;;;18.85;13.13;;;20.50;99.90;;;;;;6096083;23;20569;-87
2023/08/20 05:44:51;;;;;;;24.02;15.15;;;20.50;99.90;;;;;;6073413;23;20158;-87
2023/08/20 05:47:22;;;;;;;20.27;14.73;;;20.50;99.90;;;;;;6095358;23;20172;-86
2023/08/20 05:49:50;;;;;;;20.98;15.02;;;20.40;99.90;;;;;;6121612;23;20506;-86
2023/08/20 05:52:18;;;;;;;20.55;14.70;;;20.50;99.90;;;;;;6121442;23;20197;-87
2023/08/20 05:54:46;;;;;;;22.50;15.77;;;20.50;99.90;;;;;;6071797;23;20632;-87
2023/08/20 05:57:14;;;;;;;21.63;15.52;;;20.50;99.90;;;;;;6095367;23;20260;-85
2023/08/20 05:59:43;;;;;;;22.02;15.25;;;20.50;99.90;;;;;;6095219;23;20174;-85
2023/08/20 06:02:17;;;;;;;22.63;16.80;;;20.50;99.90;;;;;;6095490;23;20175;-85
2023/08/20 06:04:45;;;;;;;23.35;15.32;;;20.60;99.90;;;;;;6121650;23;20477;-87
2023/08/20 06:07:12;;;;;;;22.85;16.00;;;20.60;99.90;;;;;;6122137;23;20171;-86
2023/08/20 06:09:40;;;;;;;19.73;14.30;;;20.60;99.90;;;;;;6123471;23;20627;-87
2023/08/20 06:12:08;;;;;;;21.80;14.88;;;20.50;99.90;;;;;;6098136;23;20185;-87
2023/08/20 06:14:35;;;;;;;22.15;16.40;;;20.60;99.90;;;;;;6123572;23;20182;-86
2023/08/20 06:17:03;;;;;;;21.55;14.73;;;20.70;99.90;;;;;;6097836;23;20401;-88
2023/08/20 06:19:31;;;;;;;19.95;14.55;;;20.70;99.90;;;;;;6123860;23;20164;-85
2023/08/20 06:22:00;;;;;;;20.50;15.15;;;20.70;99.90;;;;;;6125067;23;20627;-87
2023/08/20 06:24:28;;;;;;;23.70;15.98;;;20.70;99.90;;;;;;6097360;23;20174;-85
2023/08/20 06:26:55;;;;;;;21.92;15.63;;;20.70;99.90;;;;;;6073519;23;20923;-86
2023/08/20 06:29:23;;;;;;;21.77;15.45;;;20.70;99.90;;;;;;6123289;23;20183;-86
2023/08/20 06:31:51;;;;;;;21.77;15.23;;;20.70;99.90;;;;;;6123400;23;20167;-86
2023/08/20 06:34:18;;;;;;;21.13;14.57;;;20.70;99.90;;;;;;6097028;23;20163;-88
2023/08/20 06:36:47;;;;;;;20.60;15.85;;;20.80;99.90;;;;;;6097180;23;20187;-86
2023/08/20 06:39:15;;;;;;;21.40;15.52;;;20.80;99.90;;;;;;6123175;23;20163;-86
2023/08/20 06:41:42;;;;;;;24.20;16.77;;;20.80;99.90;;;;;;6097138;23;20625;-85
2023/08/20 06:44:19;;;;;;;22.30;15.60;;;20.80;99.90;;;;;;6097192;23;20162;-81
2023/08/20 06:46:47;;;;;;;22.70;16.30;;;20.80;99.90;;;;;;6096771;23;20171;-87
2023/08/20 06:49:14;;;;;;;24.08;16.90;;;20.80;99.90;;;;;;6126184;23;20168;-83
2023/08/20 06:51:42;;;;;;;24.20;16.65;;;20.80;99.90;;;;;;6125319;23;20163;-84
2023/08/20 06:54:09;;;;;;;23.08;16.67;;;20.80;99.90;;;;;;6123028;23;20162;-85
2023/08/20 06:56:37;;;;;;;23.23;16.92;;;20.80;99.90;;;;;;6120155;23;20202;-84
2023/08/20 06:59:06;;;;;;;20.48;15.38;;;20.80;99.90;;;;;;6121920;23;20630;-84
2023/08/20 07:01:33;;;;;;;22.27;16.98;;;20.90;99.90;;;;;;6122572;23;20160;-87
2023/08/20 07:04:01;;;;;;;22.90;15.68;;;20.90;99.90;;;;;;6123332;23;20164;-85
2023/08/20 07:06:30;;;;;;;20.35;14.98;;;20.90;99.90;;;;;;6123420;23;20190;-82
2023/08/20 07:08:58;;;;;;;23.23;14.77;;;20.90;99.90;;;;;;6096852;23;20171;-84
2023/08/20 07:11:26;;;;;;;22.67;16.25;;;20.90;99.90;;;;;;6096254;23;20163;-85
2023/08/20 07:13:53;;;;;;;22.05;15.60;;;20.90;99.90;;;;;;6095702;23;20171;-85
2023/08/20 07:16:20;;;;;;;22.63;17.02;;;20.90;99.90;;;;;;6096485;23;20175;-85
2023/08/20 07:18:48;;;;;;;23.15;16.58;;;20.90;99.90;;;;;;6121637;23;20160;-87
2023/08/20 07:21:18;;;;;;;20.77;16.85;;;20.90;99.90;;;;;;6121246;23;20164;-85
2023/08/20 07:23:47;;;;;;;23.05;16.50;;;20.90;99.90;;;;;;6096774;23;20689;-84
2023/08/20 07:26:15;;;;;;;21.02;15.85;;;20.90;99.90;;;;;;6120947;23;20163;-84
2023/08/20 07:28:58;;;;;;;23.95;15.85;;;20.90;99.90;;;;;;6122685;23;20242;-86
2023/08/20 07:31:28;;;;;;;20.52;16.23;;;20.90;99.90;;;;;;6121691;23;20321;-87
2023/08/20 07:33:56;;;;;;;22.33;15.95;;;21.00;99.90;;;;;;6097027;23;20159;-82
2023/08/20 07:36:25;;;;;;;20.25;15.38;;;21.10;99.90;;;;;;6122788;23;20163;-87
2023/08/20 07:38:55;;;;;;;20.35;15.15;;;21.20;99.90;;;;;;6122980;23;20159;-86
2023/08/20 07:41:23;;;;;;;21.05;14.68;;;21.20;99.90;;;;;;6122154;23;20226;-87
2023/08/20 07:43:51;;;;;;;23.00;14.90;;;21.20;99.90;;;;;;6096721;23;20182;-86
2023/08/20 07:46:19;;;;;;;20.17;15.60;;;21.20;99.90;;;;;;6122522;23;20163;-87
2023/08/20 07:48:47;;;;;;;21.00;16.05;;;21.20;99.90;;;;;;6122467;23;20198;-87
2023/08/20 07:51:17;;;;;;;20.90;14.93;;;21.20;99.90;;;;;;6096319;23;20266;-85
2023/08/20 07:53:45;;;;;;;22.02;15.18;;;21.30;99.90;;;;;;6123458;23;20182;-86
2023/08/20 07:56:12;;;;;;;20.48;13.95;;;21.30;99.90;;;;;;6072378;23;20207;-83
2023/08/20 07:58:40;;;;;;;21.25;16.23;;;21.40;99.90;;;;;;6123465;23;20210;-85
2023/08/20 08:01:07;;;;;;;22.15;15.27;;;21.40;99.90;;;;;;6096871;23;20159;-85
2023/08/20 08:03:35;;;;;;;19.67;14.43;;;21.50;99.90;;;;;;6071638;23;20171;-85
2023/08/20 08:06:03;;;;;;;20.38;14.73;;;21.50;99.90;;;;;;6121558;23;20160;-85
2023/08/20 08:08:30;;;;;;;20.08;14.25;;;21.60;99.90;;;;;;6096880;23;20173;-83
2023/08/20 08:10:58;;;;;;;18.42;14.43;;;21.60;99.90;;;;;;6095727;23;20174;-86
2023/08/20 08:13:26;;;;;;;17.73;13.52;;;21.60;99.90;;;;;;6072856;23;20178;-85
2023/08/20 08:15:54;;;;;;;18.00;13.27;;;21.70;99.90;;;;;;6096007;23;20202;-86
2023/08/20 08:18:21;;;;;;;17.20;13.63;;;21.70;99.90;;;;;;6096087;23;20215;-82
2023/08/20 08:20:49;;;;;;;15.20;12.02;;;21.70;99.90;;;;;;6097636;23;20575;-86
2023/08/20 08:23:17;;;;;;;17.90;13.52;;;21.80;99.90;;;;;;6127245;23;20159;-86
2023/08/20 08:25:44;;;;;;;16.58;13.00;;;21.80;99.90;;;;;;6127033;23;20155;-87
2023/08/20 08:28:12;;;;;;;17.30;12.80;;;21.90;99.90;;;;;;6124574;23;20170;-88
2023/08/20 08:30:40;;;;;;;17.05;12.02;;;21.90;99.90;;;;;;6095752;23;20167;-86
2023/08/20 08:33:07;;;;;;;17.10;11.80;;;21.90;99.90;;;;;;6098752;23;20182;-86
2023/08/20 08:35:35;;;;;;;17.83;12.50;;;21.90;99.90;;;;;;6121624;23;20167;-83
2023/08/20 08:38:04;;;;;;;14.23;10.90;;;22.00;99.90;;;;;;6120762;23;20194;-87
2023/08/20 08:40:33;;;;;;;15.32;11.07;;;22.00;99.90;;;;;;6094575;23;20221;-85
2023/08/20 08:43:03;;;;;;;13.48;10.70;;;22.00;99.90;;;;;;6119177;23;20159;-87
2023/08/20 08:45:30;;;;;;;13.65;9.77;;;22.00;99.90;;;;;;6093662;23;20171;-83
2023/08/20 08:48:03;;;;;;;14.05;10.40;;;22.10;99.90;;;;;;6098394;23;20525;-85
2023/08/20 08:50:32;;;;;;;13.20;10.70;;;22.10;99.90;;;;;;6097867;23;20255;-85
2023/08/20 08:53:01;;;;;;;12.85;10.57;;;22.20;99.90;;;;;;6096036;23;20199;-85
2023/08/20 08:55:29;;;;;;;12.63;10.38;;;22.30;99.90;;;;;;6119086;23;20746;-87
2023/08/20 08:57:58;;;;;;;11.73;10.13;;;22.30;99.90;;;;;;6120285;23;20198;-85
2023/08/20 09:00:27;;;;;;;11.18;9.93;;;22.30;99.90;;;;;;6094091;23;20250;-85
2023/08/20 09:02:55;;;;;;;13.65;10.07;;;22.40;99.90;;;;;;6122098;23;20224;-86
2023/08/20 09:05:24;;;;;;;12.77;10.05;;;22.40;99.90;;;;;;6099728;23;20163;-85
2023/08/20 09:07:57;;;;;;;13.82;9.27;;;22.40;99.90;;;;;;6125477;23;20164;-84
2023/08/20 09:10:27;;;;;;;11.95;10.02;;;22.50;99.90;;;;;;6095984;23;20167;-85
2023/08/20 09:12:58;;;;;;;11.05;9.48;;;22.70;99.90;;;;;;6123816;23;20159;-87
2023/08/20 09:15:35;;;;;;;12.75;9.38;;;22.70;99.90;;;;;;6120649;23;20168;-84
2023/08/20 09:18:04;;;;;;;10.48;9.10;;;22.70;99.90;;;;;;6093990;23;20175;-84
2023/08/20 09:20:36;;;;;;;15.18;9.02;;;23.10;99.90;;;;;;6093585;23;20251;-83
2023/08/20 09:23:04;;;;;;;10.35;8.63;;;23.10;99.90;;;;;;6124997;23;20215;-86
2023/08/20 09:25:32;;;;;;;11.38;8.05;;;23.20;99.90;;;;;;6095246;23;20194;-85
2023/08/20 09:28:04;;;;;;;11.00;8.27;;;23.40;99.90;;;;;;6123383;23;20171;-83
2023/08/20 09:30:31;;;;;;;10.18;8.02;;;23.30;99.90;;;;;;6129190;23;20160;-81
2023/08/20 09:33:07;;;;;;;10.20;8.43;;;23.00;99.90;;;;;;6129303;23;20227;-82
2023/08/20 09:35:34;;;;;;;12.95;7.60;;;22.90;99.90;;;;;;6082583;23;20197;-81
2023/08/20 09:38:04;;;;;;;9.27;7.93;;;22.90;99.90;;;;;;6106130;23;20190;-81
2023/08/20 09:40:32;;;;;;;14.60;8.63;;;22.90;99.90;;;;;;6134048;23;20163;-81
2023/08/20 09:43:01;;;;;;;13.63;8.13;;;22.80;99.90;;;;;;6110138;23;20623;-81
2023/08/20 09:45:29;;;;;;;11.93;9.20;;;22.90;99.90;;;;;;6110049;23;20160;-81
2023/08/20 09:47:59;;;;;;;9.52;8.32;;;23.30;99.90;;;;;;6111179;23;20215;-81
2023/08/20 09:50:32;;;;;;;11.07;9.20;;;23.60;99.90;;;;;;6135184;23;20235;-80
2023/08/20 09:53:09;;;;;;;10.80;8.45;;;23.80;99.90;;;;;;6134602;23;20603;-84
2023/08/20 09:55:41;;;;;;;12.65;9.02;;;23.70;99.90;;;;;;6130104;23;20155;-85
2023/08/20 09:58:10;;;;;;;12.32;8.32;;;23.90;99.90;;;;;;6106498;23;20187;-81
2023/08/20 10:00:38;;;;;;;14.30;8.73;;;23.60;99.90;;;;;;6132846;23;20156;-81
2023/08/20 10:03:07;;;;;;;9.27;7.90;;;23.70;99.90;;;;;;6130604;23;20164;-87
2023/08/20 10:05:35;;;;;;;9.38;8.30;;;23.80;99.90;;;;;;6129314;23;20164;-86
2023/08/20 10:08:03;;;;;;;10.07;8.45;;;23.90;99.90;;;;;;6121197;23;20176;-88
2023/08/20 10:10:31;;;;;;;11.52;8.07;;;24.10;99.90;;;;;;6099691;23;20236;-80
2023/08/20 10:12:59;;;;;;;9.43;8.43;;;24.10;99.90;;;;;;6134762;23;20174;-81
2023/08/20 10:15:28;;;;;;;10.32;8.25;;;24.00;99.90;;;;;;6133949;23;20270;-81
2023/08/20 10:17:57;;;;;;;10.38;8.15;;;23.90;99.90;;;;;;6134744;23;20193;-82
2023/08/20 10:20:30;;;;;;;14.32;8.48;;;23.80;99.90;;;;;;6137416;23;20151;-82
2023/08/20 10:23:02;;;;;;;11.32;8.15;;;24.00;99.90;;;;;;6134263;23;20152;-81
2023/08/20 10:25:30;;;;;;;12.10;9.32;;;24.10;99.90;;;;;;6130430;23;20152;-81
2023/08/20 10:28:22;;;;;;;10.77;8.90;;;24.30;99.90;;;;;;6130742;23;20163;-81
2023/08/20 10:31:09;;;;;;;10.98;8.45;;;24.40;99.90;;;;;;6133799;23;20222;-81
2023/08/20 10:33:50;;;;;;;9.32;7.68;;;24.30;99.90;;;;;;6129050;23;20163;-81
2023/08/20 10:36:28;;;;;;;10.20;9.10;;;24.50;99.90;;;;;;6128753;23;20859;-81
2023/08/20 10:38:58;;;;;;;13.23;8.68;;;24.40;99.90;;;;;;6129183;23;20182;-81
2023/08/20 10:41:27;;;;;;;11.48;8.63;;;24.40;99.90;;;;;;6104926;23;20224;-81
2023/08/20 10:43:58;;;;;;;9.95;8.88;;;24.40;99.90;;;;;;6129471;23;20502;-79
2023/08/20 10:46:30;;;;;;;11.15;9.02;;;24.70;99.90;;;;;;6130559;23;20148;-80
2023/08/20 10:49:01;;;;;;;9.55;8.40;;;24.80;99.90;;;;;;6131549;23;20226;-80
2023/08/20 10:51:30;;;;;;;10.57;8.70;;;24.70;99.90;;;;;;6106078;23;20174;-80
2023/08/20 10:54:01;;;;;;;9.55;8.50;;;24.60;99.90;;;;;;6131492;23;20821;-80
2023/08/20 10:56:48;;;;;;;14.05;9.23;;;24.50;99.90;;;;;;6102667;23;20656;-80
2023/08/20 10:59:16;;;;;;;11.00;9.55;;;24.70;99.90;;;;;;6131818;23;20202;-80
2023/08/20 11:01:49;;;;;;;12.93;8.75;;;24.70;99.90;;;;;;6136096;23;20160;-80
2023/08/20 11:04:22;;;;;;;10.40;8.88;;;25.00;99.90;;;;;;6111934;23;20158;-80
2023/08/20 11:06:53;;;;;;;10.20;8.18;;;24.90;99.90;;;;;;6138313;23;20154;-81
2023/08/20 11:09:30;;;;;;;16.85;9.25;;;24.70;99.90;;;;;;6138424;23;20179;-81
2023/08/20 11:12:00;;;;;;;10.25;8.43;;;24.90;99.90;;;;;;6134909;23;20221;-80
2023/08/20 11:14:30;;;;;;;10.63;8.98;;;25.20;99.90;;;;;;6134849;23;20155;-82
2023/08/20 11:16:58;;;;;;;12.77;9.80;;;25.30;99.90;;;;;;6135065;23;20166;-81
2023/08/20 11:19:28;;;;;;;12.35;9.60;;;25.50;99.90;;;;;;6138514;23;20183;-81
2023/08/20 11:21:55;;;;;;;12.40;9.70;;;25.50;99.90;;;;;;6136718;23;20634;-80
2023/08/20 11:24:23;;;;;;;23.55;9.75;;;25.70;99.90;;;;;;6132221;23;20167;-88
2023/08/20 11:26:55;;;;;;;10.27;8.90;;;25.80;99.90;;;;;;6104222;23;20170;-82
2023/08/20 11:29:25;;;;;;;10.07;8.82;;;25.70;99.90;;;;;;6136995;23;20214;-81
2023/08/20 11:31:55;;;;;;;11.68;9.30;;;25.70;99.90;;;;;;6136368;23;20162;-81
2023/08/20 11:34:22;;;;;;;10.30;9.00;;;25.90;99.90;;;;;;6134757;23;20163;-81
2023/08/20 11:36:50;;;;;;;11.13;9.15;;;26.00;99.90;;;;;;6135138;23;20197;-81
2023/08/20 11:39:17;;;;;;;11.00;9.20;;;26.10;99.90;;;;;;6137113;23;20183;-81
2023/08/20 11:41:47;;;;;;;11.35;9.68;;;26.20;99.90;;;;;;6137801;23;20242;-80
2023/08/20 11:44:28;;;;;;;9.68;8.68;;;26.20;99.90;;;;;;6109786;23;20167;-80
2023/08/20 11:46:55;;;;;;;10.45;9.10;;;26.30;99.90;;;;;;6134058;23;20168;-81
2023/08/20 11:49:29;;;;;;;10.98;9.70;;;26.20;99.90;;;;;;6109301;23;20175;-80
2023/08/20 11:52:02;;;;;;;11.30;9.35;;;26.30;99.90;;;;;;6135013;23;20159;-80
2023/08/20 11:54:34;;;;;;;11.10;8.90;;;26.40;99.90;;;;;;6136342;23;20162;-80
2023/08/20 11:57:04;;;;;;;10.70;9.38;;;26.40;99.90;;;;;;6133106;23;20245;-82
2023/08/20 11:59:33;;;;;;;11.43;9.35;;;26.40;99.90;;;;;;6109063;23;20191;-82
2023/08/20 12:02:05;;;;;;;11.07;9.38;;;26.10;99.90;;;;;;6137849;23;20159;-81
2023/08/20 12:04:32;;;;;;;12.23;10.38;;;26.20;99.90;;;;;;6137459;23;20175;-80
2023/08/20 12:07:06;;;;;;;9.82;8.82;;;26.20;99.90;;;;;;6138289;23;20155;-80
2023/08/20 12:09:34;;;;;;;12.55;9.63;;;26.00;99.90;;;;;;6140222;23;20154;-80
2023/08/20 12:12:06;;;;;;;11.35;10.23;;;25.70;99.90;;;;;;6136477;23;20148;-80
2023/08/20 12:14:39;;;;;;;11.07;9.38;;;25.70;99.90;;;;;;6110240;23;20155;-80
2023/08/20 12:17:12;;;;;;;10.45;8.85;;;25.80;99.90;;;;;;6138214;23;20147;-80
2023/08/20 12:19:40;;;;;;;12.23;8.82;;;25.80;99.90;;;;;;6110900;23;20197;-80
2023/08/20 12:22:09;;;;;;;12.05;9.02;;;25.60;99.90;;;;;;6111772;23;20168;-81
2023/08/20 12:24:36;;;;;;;12.65;8.65;;;25.60;99.90;;;;;;6136021;23;20163;-81
2023/08/20 12:27:05;;;;;;;10.73;8.80;;;25.50;99.90;;;;;;6108023;23;20167;-81
2023/08/20 12:29:33;;;;;;;8.90;7.75;;;25.50;99.90;;;;;;6108713;23;20182;-82
2023/08/20 12:32:03;;;;;;;9.80;8.23;;;25.40;99.90;;;;;;6136015;23;20174;-81
2023/08/20 12:34:31;;;;;;;12.10;8.48;;;25.30;99.90;;;;;;6135026;23;20219;-83
2023/08/20 12:36:59;;;;;;;13.98;8.43;;;25.30;99.90;;;;;;6135696;23;20171;-81
2023/08/20 12:39:26;;;;;;;10.18;8.20;;;25.20;99.90;;;;;;6135048;23;20183;-85
2023/08/20 12:41:54;;;;;;;9.82;8.13;;;25.10;99.90;;;;;;6108171;23;20171;-81
2023/08/20 12:44:21;;;;;;;8.80;7.90;;;25.00;99.90;;;;;;6135279;23;20166;-81